createdAt,value
2018-07-03T00:01:08.566Z,22.55
2018-07-03T00:03:37.126Z,22.57
2018-07-03T00:06:05.690Z,22.59
2018-07-03T00:08:34.226Z,22.59
2018-07-03T00:11:02.793Z,22.58
2018-07-03T00:13:31.333Z,22.65
2018-07-03T00:16:00.126Z,22.71
2018-07-03T00:18:28.983Z,22.77
2018-07-03T00:20:57.845Z,22.85
2018-07-03T00:23:26.712Z,22.90
2018-07-03T00:25:55.579Z,23.07
2018-07-03T00:28:24.421Z,23.13
2018-07-03T00:30:53.263Z,23.24
2018-07-03T00:33:22.089Z,23.25
2018-07-03T00:35:50.960Z,23.30
2018-07-03T00:38:19.773Z,23.31
2018-07-03T00:40:48.583Z,23.37
2018-07-03T00:43:17.436Z,23.39
2018-07-03T00:45:46.283Z,23.42
2018-07-03T00:48:15.113Z,23.43
2018-07-03T00:50:43.948Z,23.39
2018-07-03T00:53:12.868Z,23.36
2018-07-03T00:55:41.476Z,23.29
2018-07-03T00:58:10.023Z,23.24
2018-07-03T01:00:38.595Z,23.20
2018-07-03T01:03:07.152Z,23.17
2018-07-03T01:05:35.720Z,23.14
2018-07-03T01:08:04.275Z,23.21
2018-07-03T01:10:32.825Z,23.21
2018-07-03T01:13:01.363Z,23.17
2018-07-03T01:15:29.902Z,23.20
2018-07-03T01:17:58.658Z,23.26
2018-07-03T01:20:27.497Z,23.21
2018-07-03T01:22:57.012Z,23.23
2018-07-03T01:25:26.004Z,23.25
2018-07-03T01:27:54.655Z,23.31
2018-07-03T01:30:23.235Z,23.37
2018-07-03T01:32:51.770Z,23.38
2018-07-03T01:35:20.277Z,23.38
2018-07-03T01:37:48.820Z,23.38
2018-07-03T01:40:17.415Z,23.32
2018-07-03T01:42:45.943Z,23.33
2018-07-03T01:45:14.493Z,23.32
2018-07-03T01:47:43.243Z,23.29
2018-07-03T01:50:12.163Z,23.27
2018-07-03T01:52:41.021Z,23.30
2018-07-03T01:55:09.867Z,23.37
2018-07-03T01:57:38.745Z,23.38
2018-07-03T02:00:07.627Z,23.37
2018-07-03T02:02:36.253Z,23.33
2018-07-03T02:05:04.635Z,23.30
2018-07-03T02:07:33.205Z,23.29
2018-07-03T02:10:01.741Z,23.29
2018-07-03T02:12:30.288Z,23.31
2018-07-03T02:14:58.807Z,23.30
2018-07-03T02:17:27.345Z,23.34
2018-07-03T02:19:55.870Z,23.30
2018-07-03T02:22:25.747Z,23.34
2018-07-03T02:24:54.485Z,23.39
2018-07-03T02:27:23.010Z,23.41
2018-07-03T02:29:51.510Z,23.44
2018-07-03T02:32:20.255Z,23.39
2018-07-03T02:34:49.085Z,23.36
2018-07-03T02:37:17.974Z,23.35
2018-07-03T02:39:46.873Z,23.40
2018-07-03T02:42:15.803Z,23.36
2018-07-03T02:44:44.695Z,23.32
2018-07-03T02:47:13.536Z,23.26
2018-07-03T02:49:42.357Z,23.24
2018-07-03T02:52:11.215Z,23.23
2018-07-03T02:54:40.156Z,23.25
2018-07-03T02:57:09.048Z,23.26
2018-07-03T02:59:37.923Z,23.25
2018-07-03T03:02:06.873Z,23.19
2018-07-03T03:04:35.725Z,23.19
2018-07-03T03:07:04.708Z,23.15
2018-07-03T03:09:33.594Z,23.13
2018-07-03T03:12:02.481Z,23.17
2018-07-03T03:14:31.346Z,23.18
2018-07-03T03:17:00.208Z,23.21
2018-07-03T03:19:29.051Z,23.22
2018-07-03T03:21:57.676Z,23.22
2018-07-03T03:24:26.200Z,23.15
2018-07-03T03:26:54.731Z,23.05
2018-07-03T03:29:23.123Z,22.98
2018-07-03T03:31:51.853Z,22.95
2018-07-03T03:34:20.708Z,22.99
2018-07-03T03:36:49.598Z,22.99
2018-07-03T03:39:18.531Z,23.01
2018-07-03T03:41:47.473Z,23.01
2018-07-03T03:44:16.394Z,22.98
2018-07-03T03:46:45.283Z,22.97
2018-07-03T03:49:14.160Z,22.97
2018-07-03T03:51:43.035Z,22.92
2018-07-03T03:54:11.898Z,22.89
2018-07-03T03:56:40.804Z,22.88
2018-07-03T03:59:09.704Z,22.86
2018-07-03T04:01:38.316Z,22.91
2018-07-03T04:04:06.831Z,22.86
2018-07-03T04:06:35.490Z,22.85
2018-07-03T04:09:06.719Z,22.88
2018-07-03T04:11:35.711Z,22.92
2018-07-03T04:14:04.823Z,22.91
2018-07-03T04:16:33.736Z,22.88
2018-07-03T04:19:02.583Z,22.86
2018-07-03T04:21:31.428Z,22.82
2018-07-03T04:24:00.255Z,22.81
2018-07-03T04:26:29.133Z,22.79
2018-07-03T04:28:57.976Z,22.78
2018-07-03T04:31:26.820Z,22.82
2018-07-03T04:33:55.483Z,22.85
2018-07-03T04:36:24.007Z,22.90
2018-07-03T04:38:52.538Z,22.96
2018-07-03T04:41:20.928Z,22.98
2018-07-03T04:43:49.733Z,23.02
2018-07-03T04:46:18.577Z,23.00
2018-07-03T04:48:47.428Z,23.07
2018-07-03T04:51:16.263Z,23.16
2018-07-03T04:53:44.906Z,23.21
2018-07-03T04:56:13.450Z,23.29
2018-07-03T04:58:41.971Z,23.39
2018-07-03T05:01:10.485Z,23.40
2018-07-03T05:03:39.303Z,23.41
2018-07-03T05:06:08.220Z,23.41
2018-07-03T05:08:37.095Z,23.50
2018-07-03T05:11:06.056Z,23.62
2018-07-03T05:13:34.951Z,23.88
2018-07-03T05:16:03.818Z,23.90
2018-07-03T05:18:32.738Z,24.02
2018-07-03T05:21:01.614Z,24.12
2018-07-03T05:23:30.483Z,24.15
2018-07-03T05:25:59.098Z,24.26
2018-07-03T05:28:27.664Z,24.32
2018-07-03T05:30:56.248Z,24.33
2018-07-03T05:33:24.953Z,24.39
2018-07-03T05:35:53.441Z,24.47
2018-07-03T05:38:22.007Z,24.47
2018-07-03T05:40:50.516Z,24.42
2018-07-03T05:43:19.058Z,24.46
2018-07-03T05:45:47.821Z,24.54
2018-07-03T05:48:16.672Z,24.61
2018-07-03T05:50:45.571Z,24.65
2018-07-03T05:53:14.486Z,24.60
2018-07-03T05:55:43.439Z,24.60
2018-07-03T05:58:12.363Z,24.57
2018-07-03T06:00:41.332Z,24.67
2018-07-03T06:03:10.261Z,24.63
2018-07-03T06:05:39.204Z,24.65
2018-07-03T06:08:08.099Z,24.60
2018-07-03T06:10:37.029Z,24.57
2018-07-03T06:13:06.076Z,24.61
2018-07-03T06:15:35.071Z,24.64
2018-07-03T06:18:03.764Z,24.57
2018-07-03T06:20:32.458Z,24.44
2018-07-03T06:23:01.093Z,24.26
2018-07-03T06:25:29.671Z,24.58
2018-07-03T06:27:58.606Z,24.68
2018-07-03T06:30:27.169Z,24.88
2018-07-03T06:32:55.629Z,24.91
2018-07-03T06:35:24.662Z,25.00
2018-07-03T06:37:53.266Z,25.11
2018-07-03T06:40:22.381Z,25.15
2018-07-03T06:42:50.976Z,25.23
2018-07-03T06:45:19.569Z,25.40
2018-07-03T06:47:50.007Z,25.29
2018-07-03T06:50:18.956Z,25.32
2018-07-03T06:52:47.989Z,25.74
2018-07-03T06:55:16.891Z,25.86
2018-07-03T06:57:45.995Z,25.77
2018-07-03T07:00:14.717Z,25.80
2018-07-03T07:02:43.323Z,25.89
2018-07-03T07:05:11.861Z,26.01
2018-07-03T07:07:40.524Z,25.91
2018-07-03T07:10:36.169Z,25.75
2018-07-03T07:13:05.029Z,25.85
2018-07-03T07:15:33.729Z,25.96
2018-07-03T07:18:02.431Z,26.06
2018-07-03T07:20:31.155Z,26.37
2018-07-03T07:22:59.961Z,26.44
2018-07-03T07:25:28.869Z,26.84
2018-07-03T07:27:57.777Z,26.91
2018-07-03T07:30:26.706Z,27.27
2018-07-03T07:32:55.444Z,27.43
2018-07-03T07:35:24.134Z,28.11
2018-07-03T07:37:52.944Z,28.18
2018-07-03T07:40:21.607Z,28.15
2018-07-03T07:42:50.604Z,28.55
2018-07-03T07:45:19.564Z,28.48
2018-07-03T07:47:48.671Z,28.60
2018-07-03T07:50:17.533Z,28.50
2018-07-03T07:52:46.298Z,28.73
2018-07-03T07:55:16.140Z,28.57
2018-07-03T07:57:45.179Z,28.45
2018-07-03T08:00:14.325Z,28.39
2018-07-03T08:02:43.031Z,28.48
2018-07-03T08:05:11.774Z,28.38
2018-07-03T08:07:40.415Z,28.55
2018-07-03T08:10:09.121Z,28.68
2018-07-03T08:12:38.149Z,28.56
2018-07-03T08:15:07.169Z,28.76
2018-07-03T08:17:35.884Z,28.86
2018-07-03T08:20:04.910Z,28.96
2018-07-03T08:22:33.906Z,28.80
2018-07-03T08:25:02.928Z,28.97
2018-07-03T08:27:31.872Z,29.16
2018-07-03T08:30:00.888Z,29.30
2018-07-03T08:32:29.654Z,29.51
2018-07-03T08:34:58.376Z,29.69
2018-07-03T08:37:27.136Z,29.64
2018-07-03T08:39:55.843Z,30.04
2018-07-03T08:42:24.489Z,29.85
2018-07-03T08:44:53.174Z,29.61
2018-07-03T08:47:21.846Z,29.12
2018-07-03T08:49:50.501Z,29.35
2018-07-03T08:52:19.196Z,29.69
2018-07-03T08:54:48.143Z,29.74
2018-07-03T08:57:17.129Z,29.98
2018-07-03T08:59:46.024Z,30.12
2018-07-03T09:02:15.058Z,30.56
2018-07-03T09:04:44.023Z,31.01
2018-07-03T09:07:12.907Z,31.78
2018-07-03T09:09:41.871Z,31.57
2018-07-03T09:12:10.876Z,32.88
2018-07-03T09:14:39.801Z,33.00
2018-07-03T09:17:14.354Z,32.73
2018-07-03T09:19:43.328Z,32.54
2018-07-03T09:22:12.049Z,31.92
2018-07-03T09:24:40.888Z,31.53
2018-07-03T09:27:09.598Z,31.09
2018-07-03T09:29:38.263Z,30.96
2018-07-03T09:32:07.138Z,30.87
2018-07-03T09:34:36.033Z,31.06
2018-07-03T09:37:05.271Z,30.86
2018-07-03T09:39:34.201Z,30.80
2018-07-03T09:42:02.946Z,30.60
2018-07-03T09:44:32.115Z,30.88
2018-07-03T09:47:00.861Z,31.34
2018-07-03T09:49:29.533Z,31.26
2018-07-03T09:51:58.278Z,31.11
2018-07-03T09:54:26.904Z,31.12
2018-07-03T09:56:55.514Z,31.11
2018-07-03T09:59:24.146Z,31.14
2018-07-03T10:01:52.961Z,30.89
2018-07-03T10:04:21.666Z,31.01
2018-07-03T10:06:50.325Z,30.74
2018-07-03T10:09:18.989Z,30.46
2018-07-03T10:11:47.699Z,30.66
2018-07-03T10:14:16.336Z,30.95
2018-07-03T10:16:44.993Z,31.16
2018-07-03T10:19:13.663Z,31.40
2018-07-03T10:21:42.366Z,31.60
2018-07-03T10:24:11.020Z,31.71
2018-07-03T10:26:39.689Z,31.61
2018-07-03T10:29:08.456Z,31.98
2018-07-03T10:31:37.264Z,32.19
2018-07-03T10:34:06.196Z,32.65
2018-07-03T10:36:35.089Z,32.79
2018-07-03T10:39:06.513Z,33.41
2018-07-03T10:41:35.311Z,32.87
2018-07-03T10:44:04.395Z,33.55
2018-07-03T10:46:33.086Z,33.69
2018-07-03T10:49:01.749Z,33.61
2018-07-03T10:51:30.591Z,33.40
2018-07-03T10:53:59.768Z,32.86
2018-07-03T10:56:28.664Z,32.18
2018-07-03T10:58:57.638Z,32.12
2018-07-03T11:01:26.563Z,32.19
2018-07-03T11:03:55.571Z,32.05
2018-07-03T11:06:24.531Z,32.31
2018-07-03T11:08:53.518Z,32.24
2018-07-03T11:11:22.459Z,32.31
2018-07-03T11:13:51.531Z,32.52
2018-07-03T11:16:20.483Z,32.71
2018-07-03T11:18:49.406Z,32.97
2018-07-03T11:21:18.854Z,33.15
2018-07-03T11:23:50.184Z,33.21
2018-07-03T11:26:18.971Z,33.65
2018-07-03T11:28:47.697Z,33.60
2018-07-03T11:31:16.291Z,34.05
2018-07-03T11:33:44.991Z,33.75
2018-07-03T11:36:13.583Z,33.57
2018-07-03T11:38:42.383Z,33.50
2018-07-03T11:41:11.082Z,33.42
2018-07-03T11:43:40.226Z,33.40
2018-07-03T11:46:09.162Z,33.23
2018-07-03T11:48:38.469Z,32.75
2018-07-03T11:51:07.256Z,32.12
2018-07-03T11:53:36.917Z,32.70
2018-07-03T11:56:05.918Z,32.96
2018-07-03T11:58:35.624Z,33.29
2018-07-03T12:01:04.604Z,33.22
2018-07-03T12:03:33.377Z,33.19
2018-07-03T12:06:02.639Z,33.85
2018-07-03T12:08:31.399Z,34.10
2018-07-03T12:11:00.968Z,34.66
2018-07-03T12:13:30.748Z,34.94
2018-07-03T12:15:59.779Z,35.08
2018-07-03T12:18:39.836Z,35.49
2018-07-03T12:21:09.231Z,35.44
2018-07-03T12:23:38.679Z,35.49
2018-07-03T12:26:07.887Z,35.65
2018-07-03T12:28:42.491Z,35.94
2018-07-03T12:31:11.925Z,34.59
2018-07-03T12:33:40.623Z,34.38
2018-07-03T12:36:10.180Z,35.24
2018-07-03T12:38:38.911Z,35.90
2018-07-03T12:41:07.872Z,35.17
2018-07-03T12:43:36.826Z,34.11
2018-07-03T12:46:05.969Z,34.21
2018-07-03T12:48:35.074Z,34.96
2018-07-03T12:51:04.749Z,35.19
2018-07-03T12:53:33.850Z,35.52
2018-07-03T12:56:02.525Z,35.37
2018-07-03T12:58:31.251Z,35.07
2018-07-03T13:00:59.948Z,34.75
2018-07-03T13:03:28.588Z,34.32
2018-07-03T13:05:57.352Z,34.85
2018-07-03T13:08:26.094Z,36.08
2018-07-03T13:10:57.362Z,36.65
2018-07-03T13:13:26.056Z,36.79
2018-07-03T13:15:54.857Z,36.35
2018-07-03T13:18:23.970Z,35.80
2018-07-03T13:20:54.159Z,35.25
2018-07-03T13:23:24.167Z,34.66
2018-07-03T13:25:53.376Z,34.53
2018-07-03T13:28:22.491Z,35.69
2018-07-03T13:30:51.634Z,35.65
2018-07-03T13:33:22.499Z,35.66
2018-07-03T13:35:51.463Z,36.05
2018-07-03T13:38:20.961Z,35.88
2018-07-03T13:40:49.991Z,35.74
2018-07-03T13:43:24.502Z,35.95
2018-07-03T13:45:53.599Z,36.88
2018-07-03T13:48:22.729Z,37.33
2018-07-03T13:50:51.244Z,37.51
2018-07-03T13:53:20.144Z,37.58
2018-07-03T13:55:48.873Z,38.05
2018-07-03T13:58:17.577Z,38.06
2018-07-03T14:00:46.494Z,38.18
2018-07-03T14:03:15.548Z,38.19
2018-07-03T14:05:44.496Z,38.10
2018-07-03T14:08:13.392Z,38.05
2018-07-03T14:10:42.212Z,38.25
2018-07-03T14:13:12.337Z,38.22
2018-07-03T14:15:40.959Z,37.59
2018-07-03T14:18:09.634Z,37.96
2018-07-03T14:20:38.578Z,38.15
2018-07-03T14:23:07.513Z,38.20
2018-07-03T14:25:36.456Z,38.46
2018-07-03T14:28:05.405Z,38.10
2018-07-03T14:30:34.820Z,38.06
2018-07-03T14:33:03.459Z,37.87
2018-07-03T14:35:32.125Z,37.63
2018-07-03T14:38:00.564Z,37.97
2018-07-03T14:40:29.416Z,37.42
2018-07-03T14:42:58.366Z,37.08
2018-07-03T14:45:27.336Z,37.13
2018-07-03T14:47:56.234Z,36.88
2018-07-03T14:50:24.931Z,36.98
2018-07-03T14:52:53.561Z,37.12
2018-07-03T14:55:22.199Z,37.52
2018-07-03T14:57:50.756Z,36.95
2018-07-03T15:00:19.604Z,36.98
2018-07-03T15:02:48.539Z,37.10
2018-07-03T15:05:17.499Z,36.97
2018-07-03T15:07:47.219Z,36.18
2018-07-03T15:10:16.154Z,35.97
2018-07-03T15:12:45.012Z,36.31
2018-07-03T15:15:14.244Z,36.88
2018-07-03T15:17:43.199Z,37.40
2018-07-03T15:20:12.246Z,36.98
2018-07-03T15:22:41.219Z,36.73
2018-07-03T15:25:10.176Z,36.42
2018-07-03T15:27:39.064Z,35.88
2018-07-03T15:30:08.046Z,34.99
2018-07-03T15:32:37.154Z,34.21
2018-07-03T15:35:06.146Z,33.67
2018-07-03T15:37:35.219Z,33.38
2018-07-03T15:40:04.308Z,33.21
2018-07-03T15:42:34.539Z,33.26
2018-07-03T15:45:12.890Z,33.23
2018-07-03T15:47:47.358Z,33.34
2018-07-03T15:50:16.046Z,33.22
2018-07-03T15:52:44.686Z,33.25
2018-07-03T15:55:13.368Z,33.21
2018-07-03T15:57:42.002Z,33.06
2018-07-03T16:00:14.067Z,33.50
2018-07-03T16:02:58.452Z,33.67
2018-07-03T16:05:44.095Z,34.23
2018-07-03T16:09:06.639Z,34.33
2018-07-03T16:11:35.393Z,35.05
2018-07-03T16:14:04.121Z,34.73
2018-07-03T16:16:32.824Z,34.87
2018-07-03T16:19:07.076Z,34.89
2018-07-03T16:21:36.269Z,34.28
2018-07-03T16:24:05.358Z,34.16
2018-07-03T16:26:34.356Z,34.03
2018-07-03T16:29:04.532Z,33.51
2018-07-03T16:31:33.490Z,32.90
2018-07-03T16:34:02.486Z,33.09
2018-07-03T16:36:31.463Z,33.67
2018-07-03T16:39:00.451Z,34.32
2018-07-03T16:41:29.637Z,34.52
2018-07-03T16:43:58.403Z,34.21
2018-07-03T16:46:27.023Z,33.65
2018-07-03T16:48:55.688Z,33.76
2018-07-03T16:51:24.324Z,33.65
2018-07-03T16:53:53.216Z,33.54
2018-07-03T16:56:22.103Z,33.64
2018-07-03T16:58:51.051Z,33.26
2018-07-03T17:01:20.519Z,33.03
2018-07-03T17:03:49.211Z,32.84
2018-07-03T17:06:17.798Z,32.69
2018-07-03T17:08:46.403Z,32.49
2018-07-03T17:11:15.006Z,32.20
2018-07-03T17:13:43.756Z,31.64
2018-07-03T17:16:12.516Z,31.19
2018-07-03T17:19:50.345Z,30.87
2018-07-03T17:22:19.577Z,30.19
2018-07-03T17:24:48.322Z,30.01
2018-07-03T17:27:17.056Z,29.99
2018-07-03T17:29:45.703Z,29.81
2018-07-03T17:32:14.415Z,29.59
2018-07-03T17:34:43.664Z,29.76
2018-07-03T17:37:12.426Z,29.55
2018-07-03T17:39:52.218Z,29.35
2018-07-03T17:42:37.933Z,29.32
2018-07-03T17:45:49.494Z,29.27
2018-07-03T17:48:18.123Z,29.14
2018-07-03T17:50:46.751Z,28.97
2018-07-03T17:53:15.802Z,28.78
2018-07-03T17:55:44.743Z,28.81
2018-07-03T17:58:13.751Z,28.72
2018-07-03T18:00:48.168Z,28.71
2018-07-03T18:03:16.938Z,28.72
2018-07-03T18:05:45.559Z,28.53
2018-07-03T18:08:14.256Z,28.38
2018-07-03T18:10:43.908Z,28.30
2018-07-03T18:13:12.643Z,28.33
2018-07-03T18:15:41.270Z,28.28
2018-07-03T18:18:09.776Z,28.25
2018-07-03T18:20:38.412Z,28.19
2018-07-03T18:23:07.078Z,28.14
2018-07-03T18:25:36.149Z,28.06
2018-07-03T18:28:04.880Z,28.01
2018-07-03T18:30:33.569Z,27.91
2018-07-03T18:33:02.541Z,27.84
2018-07-03T18:35:31.556Z,27.97
2018-07-03T18:38:00.623Z,27.83
2018-07-03T18:40:29.555Z,27.67
2018-07-03T18:42:58.487Z,27.77
2018-07-03T18:45:27.254Z,27.58
2018-07-03T18:47:55.939Z,27.51
2018-07-03T18:50:25.588Z,27.37
2018-07-03T18:52:54.281Z,27.28
2018-07-03T18:55:23.045Z,27.14
2018-07-03T18:57:51.741Z,27.06
2018-07-03T19:00:20.401Z,27.07
2018-07-03T19:02:49.034Z,27.12
2018-07-03T19:05:18.203Z,27.24
2018-07-03T19:07:46.942Z,27.02
2018-07-03T19:10:15.470Z,27.06
2018-07-03T19:12:44.111Z,26.85
2018-07-03T19:15:12.989Z,26.76
2018-07-03T19:17:41.630Z,26.68
2018-07-03T19:20:10.877Z,26.60
2018-07-03T19:22:40.143Z,26.46
2018-07-03T19:25:09.899Z,26.43
2018-07-03T19:27:38.598Z,26.36
2018-07-03T19:30:07.486Z,26.24
2018-07-03T19:32:36.268Z,26.15
2018-07-03T19:35:05.092Z,26.26
2018-07-03T19:37:34.339Z,26.27
2018-07-03T19:40:04.114Z,26.08
2018-07-03T19:42:33.211Z,25.98
2018-07-03T19:45:02.222Z,26.09
2018-07-03T19:47:31.141Z,25.94
2018-07-03T19:50:00.136Z,25.84
2018-07-03T19:52:29.111Z,25.89
2018-07-03T19:54:57.749Z,25.95
2018-07-03T19:57:26.483Z,26.21
2018-07-03T19:59:55.313Z,26.25
2018-07-03T20:02:24.115Z,25.94
2018-07-03T20:04:52.831Z,25.71
2018-07-03T20:07:21.559Z,25.52
2018-07-03T20:09:50.284Z,25.41
2018-07-03T20:12:18.952Z,25.23
2018-07-03T20:14:47.626Z,25.10
2018-07-03T20:17:16.271Z,25.02
2018-07-03T20:19:44.933Z,24.91
2018-07-03T20:22:13.742Z,24.84
2018-07-03T20:24:42.480Z,24.79
2018-07-03T20:27:11.221Z,24.76
2018-07-03T20:29:39.934Z,24.75
2018-07-03T20:32:08.664Z,24.02
2018-07-03T20:34:37.304Z,24.86
2018-07-03T20:37:06.011Z,24.91
2018-07-03T20:39:34.737Z,24.96
2018-07-03T20:42:03.477Z,24.97
2018-07-03T20:44:32.134Z,24.99
2018-07-03T20:47:00.584Z,25.00
2018-07-03T20:49:29.197Z,25.00
2018-07-03T20:51:57.840Z,25.02
2018-07-03T20:54:26.464Z,25.07
2018-07-03T20:56:55.220Z,25.10
2018-07-03T20:59:23.889Z,25.13
2018-07-03T21:01:53.151Z,25.10
2018-07-03T21:04:21.918Z,25.13
2018-07-03T21:06:50.506Z,25.00
2018-07-03T21:09:20.204Z,24.84
2018-07-03T21:11:54.596Z,24.96
2018-07-03T21:14:23.595Z,24.98
2018-07-03T21:16:52.570Z,24.93
2018-07-03T21:19:23.518Z,25.04
2018-07-03T21:21:52.350Z,24.91
2018-07-03T21:24:21.096Z,24.73
2018-07-03T21:26:49.848Z,24.60
2018-07-03T21:29:18.586Z,24.48
2018-07-03T21:31:47.318Z,24.39
2018-07-03T21:34:15.994Z,24.26
2018-07-03T21:36:45.113Z,24.15
2018-07-03T21:39:13.841Z,24.10
2018-07-03T21:41:42.438Z,24.05
2018-07-03T21:44:10.950Z,24.04
2018-07-03T21:46:40.246Z,24.03
2018-07-03T21:49:08.874Z,23.96
2018-07-03T21:51:37.511Z,23.88
2018-07-03T21:54:06.173Z,23.81
2018-07-03T21:56:34.598Z,23.68
2018-07-03T21:59:03.301Z,23.60
2018-07-03T22:01:32.251Z,23.49
2018-07-03T22:04:01.681Z,23.48
2018-07-03T22:06:30.688Z,23.39
2018-07-03T22:09:00.288Z,23.34
2018-07-03T22:11:29.023Z,23.36
2018-07-03T22:13:57.754Z,23.48
2018-07-03T22:16:26.455Z,23.39
2018-07-03T22:18:55.134Z,23.36
2018-07-03T22:21:24.004Z,23.32
2018-07-03T22:23:52.973Z,23.35
2018-07-03T22:26:21.853Z,23.38
2018-07-03T22:28:50.788Z,23.29
2018-07-03T22:31:19.491Z,23.21
2018-07-03T22:33:48.179Z,23.39
2018-07-03T22:36:17.124Z,23.47
2018-07-03T22:38:45.924Z,23.34
2018-07-03T22:41:14.552Z,23.26
2018-07-03T22:43:43.266Z,23.18
2018-07-03T22:46:12.403Z,23.43
2018-07-03T22:48:41.061Z,23.62
2018-07-03T22:51:09.805Z,23.39
2018-07-03T22:53:38.698Z,23.19
2018-07-03T22:56:07.618Z,23.07
2018-07-03T22:58:36.688Z,23.02
2018-07-03T23:01:05.679Z,22.95
2018-07-03T23:03:34.667Z,22.94
2018-07-03T23:06:03.664Z,22.88
2018-07-03T23:08:32.708Z,22.81
2018-07-03T23:11:01.633Z,22.75
2018-07-03T23:13:30.411Z,22.73
2018-07-03T23:15:59.024Z,22.61
2018-07-03T23:18:27.601Z,22.44
2018-07-03T23:20:56.249Z,22.29
2018-07-03T23:23:25.668Z,22.12
2018-07-03T23:25:54.591Z,22.04
2018-07-03T23:28:24.031Z,21.99
2018-07-03T23:30:55.934Z,21.97
2018-07-03T23:33:24.901Z,21.95
2018-07-03T23:35:53.846Z,21.94
2018-07-03T23:38:22.769Z,21.94
2018-07-03T23:40:51.676Z,21.95
2018-07-03T23:43:21.229Z,21.96
2018-07-03T23:45:59.933Z,21.93
2018-07-03T23:48:45.338Z,21.93
2018-07-03T23:51:31.073Z,21.91
2018-07-03T23:54:16.737Z,21.90
2018-07-03T23:57:02.354Z,21.87
2018-07-03T23:59:47.789Z,21.86
